Virgo Phoenix — 3FMO8 — position and weather

sailwx.info

Track history (hours):
 
Tides and Currents Weather Stations Pressure Air Temp Water Temp Dewpoint Dewpoint Depression Visibility Wind Speed Wind Dir Waves Ship Positions

Virgo Phoenix

Last reported at 2016-Apr-27 15:31 UTC. Time now 2016-Apr-29 02:00 UTC.
Position N 35°09' E 139°44'.

Length 96 m; draft 6.1 m.

Type: Ship (hazmat cat C). MMSI: 370795000.

Date/timePositionNaut miles runAvg speedWind from/ knotsBaromVisibWave heightAir tempDewpointWater temp
2016-Apr-27 15:31N 35°09' E 139°44'1111.6
2016-Apr-27 14:34N 35°20' E 139°42'1312.4
2016-Apr-27 13:33N 35°30' E 139°52'9 9.0
2016-Apr-27 12:32N 35°32' E 140°03'0 0.0
2016-Apr-27 11:32N 35°32' E 140°03'0 0.0
2016-Apr-27 10:32N 35°32' E 140°03'0 0.0
2016-Apr-27 09:23N 35°32' E 140°03'0 0.0
2016-Apr-27 08:32N 35°32' E 140°03'0 0.0
2016-Apr-27 07:23N 35°32' E 140°03'0 0.0
2016-Apr-27 06:32N 35°32' E 140°03'0 0.0
2016-Apr-27 03:32N 35°32' E 140°03'0 0.0
2016-Apr-27 02:32N 35°32' E 140°03'3 3.1
2016-Apr-27 01:33N 35°31' E 139°60'1 0.7
2016-Apr-27 00:22N 35°30' E 139°59'2 1.9
2016-Apr-26 23:33N 35°31' E 140°00'6 5.9
2016-Apr-26 22:33N 35°31' E 139°53'6 5.8
2016-Apr-26 21:31N 35°31' E 139°46'0 0.0
2016-Apr-26 20:31N 35°31' E 139°46'0 0.0
2016-Apr-26 19:31N 35°31' E 139°46'0 0.0
2016-Apr-26 18:25N 35°31' E 139°46'0 0.0
2016-Apr-26 17:22N 35°31' E 139°46'0 0.0
2016-Apr-26 16:31N 35°31' E 139°46'0 0.0
2016-Apr-26 15:31N 35°31' E 139°46'0 0.0
2016-Apr-26 14:25N 35°31' E 139°46'0 0.0
2016-Apr-26 13:25N 35°31' E 139°46'0 0.0
2016-Apr-26 12:31N 35°31' E 139°46'0 0.0
2016-Apr-26 11:31N 35°31' E 139°46'0 0.0
2016-Apr-26 10:31N 35°31' E 139°46'0 0.0
2016-Apr-26 09:31N 35°31' E 139°46'0 0.0
2016-Apr-26 08:31N 35°31' E 139°46'0 0.0
2016-Apr-26 07:31N 35°31' E 139°46'0 0.0
2016-Apr-26 06:31N 35°31' E 139°46'0 0.0
2016-Apr-26 05:31N 35°31' E 139°46'0 0.0
2016-Apr-26 04:28N 35°31' E 139°46'0 0.0
2016-Apr-26 03:31N 35°31' E 139°46'0 0.0
2016-Apr-26 02:31N 35°31' E 139°46'5 5.0
2016-Apr-26 01:33N 35°27' E 139°44'9 8.9
2016-Apr-26 00:33N 35°18' E 139°45'1212.1
2016-Apr-25 23:34N 35°06' E 139°45'1913.4
2016-Apr-25 22:09N 34°54' E 139°27'5712.5
2016-Apr-25 17:33N 34°25' E 138°27'  
Track history (hours):
 
Tides and Currents Weather Stations Pressure Air Temp Water Temp Dewpoint Dewpoint Depression Visibility Wind Speed Wind Dir Waves Ship Positions

Virgo Phoenix

Last reported at 2016-Apr-27 15:31 UTC. Time now 2016-Apr-29 02:00 UTC.
Position N 35°09' E 139°44'.

Length 96 m; draft 6.1 m.

Type: Ship (hazmat cat C). MMSI: 370795000.

Date/timePositionNaut miles runAvg speedWind from/ knotsBaromVisibWave heightAir tempDewpointWater temp
2016-Apr-27 15:31N 35°09' E 139°44'1111.6
2016-Apr-27 14:34N 35°20' E 139°42'1312.4
2016-Apr-27 13:33N 35°30' E 139°52'9 9.0
2016-Apr-27 12:32N 35°32' E 140°03'0 0.0
2016-Apr-27 11:32N 35°32' E 140°03'0 0.0
2016-Apr-27 10:32N 35°32' E 140°03'0 0.0
2016-Apr-27 09:23N 35°32' E 140°03'0 0.0
2016-Apr-27 08:32N 35°32' E 140°03'0 0.0
2016-Apr-27 07:23N 35°32' E 140°03'0 0.0
2016-Apr-27 06:32N 35°32' E 140°03'0 0.0
2016-Apr-27 03:32N 35°32' E 140°03'0 0.0
2016-Apr-27 02:32N 35°32' E 140°03'3 3.1
2016-Apr-27 01:33N 35°31' E 139°60'1 0.7
2016-Apr-27 00:22N 35°30' E 139°59'2 1.9
2016-Apr-26 23:33N 35°31' E 140°00'6 5.9
2016-Apr-26 22:33N 35°31' E 139°53'6 5.8
2016-Apr-26 21:31N 35°31' E 139°46'0 0.0
2016-Apr-26 20:31N 35°31' E 139°46'0 0.0
2016-Apr-26 19:31N 35°31' E 139°46'0 0.0
2016-Apr-26 18:25N 35°31' E 139°46'0 0.0
2016-Apr-26 17:22N 35°31' E 139°46'0 0.0
2016-Apr-26 16:31N 35°31' E 139°46'0 0.0
2016-Apr-26 15:31N 35°31' E 139°46'0 0.0
2016-Apr-26 14:25N 35°31' E 139°46'0 0.0
2016-Apr-26 13:25N 35°31' E 139°46'0 0.0
2016-Apr-26 12:31N 35°31' E 139°46'0 0.0
2016-Apr-26 11:31N 35°31' E 139°46'0 0.0
2016-Apr-26 10:31N 35°31' E 139°46'0 0.0
2016-Apr-26 09:31N 35°31' E 139°46'0 0.0
2016-Apr-26 08:31N 35°31' E 139°46'0 0.0
2016-Apr-26 07:31N 35°31' E 139°46'0 0.0
2016-Apr-26 06:31N 35°31' E 139°46'0 0.0
2016-Apr-26 05:31N 35°31' E 139°46'0 0.0
2016-Apr-26 04:28N 35°31' E 139°46'0 0.0
2016-Apr-26 03:31N 35°31' E 139°46'0 0.0
2016-Apr-26 02:31N 35°31' E 139°46'5 5.0
2016-Apr-26 01:33N 35°27' E 139°44'9 8.9
2016-Apr-26 00:33N 35°18' E 139°45'1212.1
2016-Apr-25 23:34N 35°06' E 139°45'1913.4
2016-Apr-25 22:09N 34°54' E 139°27'5712.5
2016-Apr-25 17:33N 34°25' E 138°27'  

Dump ship's entire track history